Time;durP1;ratioP1;P1;durP2;ratioP2;P2;SDS_P1;SDS_P2;PMS_P1;PMS_P2;Temp;Humidity;BMP_temperature;BMP_pressure;BME280_temperature;BME280_humidity;BME280_pressure;Samples;Min_cycle;Max_cycle;Signal;HPM_P1;HPM_P2
2023/01/19 00:01:15;;;;;;;;;;;0.00;99.90;;;;;;5019025;28;19920;-78
2023/01/19 00:03:41;;;;;;;;;;;0.10;99.90;;;;;;5010654;28;19969;-77
2023/01/19 00:06:07;;;;;;;;;;;0.10;99.90;;;;;;4999082;28;19956;-77
2023/01/19 00:08:33;;;;;;;;;;;0.10;99.90;;;;;;5015592;28;19993;-78
2023/01/19 00:10:59;;;;;;;;;;;0.10;99.90;;;;;;5012607;28;19910;-78
2023/01/19 00:13:24;;;;;;;;;;;0.10;99.90;;;;;;5002116;28;19917;-78
2023/01/19 00:15:50;;;;;;;;;;;0.20;99.90;;;;;;5014645;28;19918;-78
2023/01/19 00:18:15;;;;;;;;;;;0.20;99.90;;;;;;5014941;28;19944;-78
2023/01/19 00:20:43;;;;;;;;;;;0.20;99.90;;;;;;5014154;28;19914;-78
2023/01/19 00:23:09;;;;;;;;;;;0.20;99.90;;;;;;4997731;28;19909;-77
2023/01/19 00:25:34;;;;;;;;;;;0.20;99.90;;;;;;5015218;28;20282;-77
2023/01/19 00:28:00;;;;;;;;;;;0.20;99.90;;;;;;5014701;28;19959;-77
2023/01/19 00:30:25;;;;;;;;;;;0.20;99.90;;;;;;5014252;28;19988;-78
2023/01/19 00:32:51;;;;;;;;;;;0.20;99.90;;;;;;5014216;28;19909;-78
2023/01/19 00:35:16;;;;;;;;;;;0.10;99.60;;;;;;5015841;28;20378;-77
2023/01/19 00:37:44;;;;;;;;;;;0.20;99.30;;;;;;5014781;28;19913;-77
2023/01/19 00:40:11;;;;;;;;;;;0.10;99.70;;;;;;5014209;28;20359;-77
2023/01/19 00:42:39;;;;;;;;;;;0.10;99.80;;;;;;5016892;28;19921;-78
2023/01/19 00:45:08;;;;;;;;;;;0.10;99.90;;;;;;5014174;28;19925;-78
2023/01/19 00:47:34;;;;;;;;;;;0.10;99.90;;;;;;5017120;28;19917;-78
2023/01/19 00:49:59;;;;;;;;;;;0.10;99.80;;;;;;4996177;28;20352;-77
2023/01/19 00:52:25;;;;;;;;;;;0.10;99.90;;;;;;5022005;28;19974;-78
2023/01/19 00:54:50;;;;;;;;;;;0.10;99.90;;;;;;5035528;28;19956;-79
2023/01/19 00:57:18;;;;;;;;;;;0.10;99.90;;;;;;5021537;28;19973;-77
2023/01/19 00:59:43;;;;;;;;;;;0.10;99.90;;;;;;5036739;28;19924;-79
2023/01/19 01:02:10;;;;;;;;;;;0.10;99.90;;;;;;5036266;28;19922;-78
2023/01/19 01:04:36;;;;;;;;;;;0.10;99.90;;;;;;5035315;28;19901;-79
2023/01/19 01:07:01;;;;;;;;;;;0.10;99.90;;;;;;5034094;28;19901;-79
2023/01/19 01:09:27;;;;;;;;;;;0.10;99.90;;;;;;5036585;28;19920;-78
2023/01/19 01:11:53;;;;;;;;;;;0.10;99.90;;;;;;5016827;28;19964;-79
2023/01/19 01:14:18;;;;;;;;;;;0.10;99.90;;;;;;5018742;28;20039;-77
2023/01/19 01:16:44;;;;;;;;;;;0.10;99.90;;;;;;5013787;28;19963;-78
2023/01/19 01:19:09;;;;;;;;;;;0.10;99.90;;;;;;5009924;28;20314;-79
2023/01/19 01:21:36;;;;;;;;;;;0.00;99.90;;;;;;4984914;28;20017;-78
2023/01/19 01:24:02;;;;;;;;;;;0.00;99.90;;;;;;5013213;28;19920;-78
2023/01/19 01:26:27;;;;;;;;;;;0.00;99.90;;;;;;5014326;28;19916;-77
2023/01/19 01:28:53;;;;;;;;;;;0.00;99.90;;;;;;5016420;28;20294;-77
2023/01/19 01:31:18;;;;;;;;;;;0.00;99.90;;;;;;5013516;28;20298;-77
2023/01/19 01:33:44;;;;;;;;;;;0.00;99.90;;;;;;5015186;28;19917;-77
2023/01/19 01:36:10;;;;;;;;;;;0.00;99.90;;;;;;5012970;28;19913;-77
2023/01/19 01:38:36;;;;;;;;;;;0.00;99.90;;;;;;5012571;28;20278;-78
2023/01/19 01:41:02;;;;;;;;;;;-0.10;99.90;;;;;;5010106;28;19910;-77
2023/01/19 01:43:41;;;;;;;;;;;0.00;99.90;;;;;;5011274;28;20381;-78
2023/01/19 01:46:07;;;;;;;;;;;0.00;99.90;;;;;;5016410;28;19925;-78
2023/01/19 01:48:33;;;;;;;;;;;0.00;99.90;;;;;;5016364;28;19913;-78
2023/01/19 01:51:24;;;;;;;;;;;0.00;99.90;;;;;;5018735;28;20043;-78
2023/01/19 01:54:01;;;;;;;;;;;0.00;99.90;;;;;;5017893;28;19959;-78
2023/01/19 01:56:31;;;;;;;;;;;0.10;99.90;;;;;;5020254;28;19917;-78
2023/01/19 01:58:57;;;;;;;;;;;0.10;99.90;;;;;;5022078;28;19979;-79
2023/01/19 02:04:06;;;;;;;;;;;0.10;99.90;;;;;;5017490;28;19928;-78
2023/01/19 02:06:33;;;;;;;;;;;0.10;99.90;;;;;;5023154;28;19973;-79
2023/01/19 02:14:36;;;;;;;;;;;0.10;99.90;;;;;;5018489;28;20004;-79
2023/01/19 02:17:01;;;;;;;;;;;0.10;99.90;;;;;;5016432;28;20421;-79
2023/01/19 02:19:31;;;;;;;;;;;0.00;99.90;;;;;;5006081;28;19913;-79
2023/01/19 02:22:06;;;;;;;;;;;0.00;99.90;;;;;;5019669;28;19920;-79
2023/01/19 02:24:32;;;;;;;;;;;0.00;99.90;;;;;;5020027;28;20374;-79
2023/01/19 02:26:58;;;;;;;;;;;0.00;99.90;;;;;;5018486;28;19996;-77
2023/01/19 02:29:25;;;;;;;;;;;0.00;99.90;;;;;;5015959;28;19909;-77
2023/01/19 02:31:51;;;;;;;;;;;0.00;99.90;;;;;;5015802;28;19913;-78
2023/01/19 02:34:18;;;;;;;;;;;-0.10;99.90;;;;;;5015264;28;19965;-77
2023/01/19 02:36:44;;;;;;;;;;;-0.10;99.90;;;;;;5016007;28;20024;-78
2023/01/19 02:39:10;;;;;;;;;;;-0.10;99.90;;;;;;5015770;28;20408;-78
2023/01/19 02:41:43;;;;;;;;;;;-0.10;99.90;;;;;;5015629;28;19909;-78
2023/01/19 02:44:09;;;;;;;;;;;-0.10;99.90;;;;;;5014882;28;20319;-78
2023/01/19 02:46:35;;;;;;;;;;;-0.10;99.90;;;;;;5015686;28;19909;-77
2023/01/19 02:49:01;;;;;;;;;;;-0.20;99.90;;;;;;5016216;28;19913;-78
2023/01/19 02:51:27;;;;;;;;;;;-0.20;99.90;;;;;;5015316;28;19913;-77
2023/01/19 02:53:56;;;;;;;;;;;-0.30;99.90;;;;;;4997410;28;20008;-78
2023/01/19 02:56:40;;;;;;;;;;;-0.30;99.90;;;;;;5014820;28;19914;-78
2023/01/19 02:59:22;;;;;;;;;;;-0.30;99.90;;;;;;5015092;28;19909;-78
2023/01/19 03:01:47;;;;;;;;;;;-0.30;99.90;;;;;;5016294;28;19913;-78
2023/01/19 03:04:32;;;;;;;;;;;-0.30;99.90;;;;;;5015553;28;19917;-78
2023/01/19 03:06:57;;;;;;;;;;;-0.30;99.90;;;;;;5018684;28;19957;-77
2023/01/19 03:09:29;;;;;;;;;;;-0.30;99.90;;;;;;5018471;28;19909;-77
2023/01/19 03:12:07;;;;;;;;;;;-0.30;99.90;;;;;;4995886;28;19914;-78
2023/01/19 03:14:36;;;;;;;;;;;-0.30;99.90;;;;;;5011932;28;19909;-77
2023/01/19 03:17:02;;;;;;;;;;;-0.30;99.90;;;;;;5017186;28;19921;-78
2023/01/19 03:19:33;;;;;;;;;;;-0.30;99.90;;;;;;5018050;28;20066;-78
2023/01/19 03:22:01;;;;;;;;;;;-0.40;99.90;;;;;;5023888;28;19915;-76
2023/01/19 03:24:29;;;;;;;;;;;-0.40;99.90;;;;;;5024163;28;19913;-78
2023/01/19 03:27:00;;;;;;;;;;;-0.50;99.90;;;;;;5023841;28;19920;-77
2023/01/19 03:29:27;;;;;;;;;;;-0.50;99.90;;;;;;5019433;28;19964;-77
2023/01/19 03:31:53;;;;;;;;;;;-0.50;99.90;;;;;;5006175;28;20266;-78
2023/01/19 03:34:22;;;;;;;;;;;-0.50;99.90;;;;;;5008017;28;19909;-76
2023/01/19 03:36:50;;;;;;;;;;;-0.50;99.90;;;;;;5015239;28;20574;-78
2023/01/19 03:39:18;;;;;;;;;;;-0.50;99.90;;;;;;5016287;28;20000;-78
2023/01/19 03:41:47;;;;;;;;;;;-0.50;99.90;;;;;;5015317;28;19910;-78
2023/01/19 03:44:12;;;;;;;;;;;-0.60;99.90;;;;;;5029545;28;19964;-78
2023/01/19 03:46:38;;;;;;;;;;;-0.60;99.90;;;;;;5015516;28;19935;-77
2023/01/19 03:49:04;;;;;;;;;;;-0.60;99.90;;;;;;5015249;28;19917;-79
2023/01/19 03:51:33;;;;;;;;;;;-0.60;99.90;;;;;;5014990;28;19913;-78
2023/01/19 03:54:00;;;;;;;;;;;-0.60;99.90;;;;;;5014995;28;19909;-78
2023/01/19 03:56:25;;;;;;;;;;;-0.60;99.90;;;;;;5015471;28;19917;-78
2023/01/19 03:58:51;;;;;;;;;;;-0.60;99.90;;;;;;5001167;28;19910;-78
2023/01/19 04:01:19;;;;;;;;;;;-0.70;99.90;;;;;;5017199;28;19925;-77
2023/01/19 04:03:46;;;;;;;;;;;-0.80;99.90;;;;;;5016797;28;19913;-79
2023/01/19 04:06:11;;;;;;;;;;;-0.80;99.90;;;;;;5016326;28;19909;-77
2023/01/19 04:08:37;;;;;;;;;;;-0.80;99.90;;;;;;5014150;28;19921;-77
2023/01/19 04:11:02;;;;;;;;;;;-0.90;99.90;;;;;;5014671;28;20446;-77
2023/01/19 04:13:28;;;;;;;;;;;-0.90;99.90;;;;;;5016057;28;19910;-77
2023/01/19 04:15:57;;;;;;;;;;;-0.90;99.90;;;;;;4994523;28;19920;-78
2023/01/19 04:18:23;;;;;;;;;;;-1.00;99.90;;;;;;5010671;28;19918;-77
2023/01/19 04:20:48;;;;;;;;;;;-1.00;99.90;;;;;;5018963;28;19921;-77
2023/01/19 04:23:14;;;;;;;;;;;-1.00;99.90;;;;;;5011671;28;19909;-78
2023/01/19 04:25:39;;;;;;;;;;;-1.00;99.90;;;;;;5001615;28;20393;-77
2023/01/19 04:28:05;;;;;;;;;;;-1.10;99.90;;;;;;5015636;28;19913;-78
2023/01/19 04:30:30;;;;;;;;;;;-1.10;99.90;;;;;;5014797;28;20016;-78
2023/01/19 04:32:57;;;;;;;;;;;-1.10;99.90;;;;;;5014217;28;20338;-77
2023/01/19 04:35:23;;;;;;;;;;;-1.10;99.90;;;;;;5014680;28;19918;-78
2023/01/19 04:37:48;;;;;;;;;;;-1.10;99.90;;;;;;5018353;28;19921;-79
2023/01/19 04:40:14;;;;;;;;;;;-1.00;99.90;;;;;;5031055;28;19929;-78
2023/01/19 04:42:43;;;;;;;;;;;-1.00;99.90;;;;;;5020794;28;19922;-78
2023/01/19 04:45:09;;;;;;;;;;;-1.00;99.90;;;;;;5020436;28;19924;-78
2023/01/19 04:47:35;;;;;;;;;;;-1.00;99.90;;;;;;5036506;28;19898;-78
2023/01/19 04:50:01;;;;;;;;;;;-1.00;99.90;;;;;;5036321;28;19932;-78
2023/01/19 04:52:33;;;;;;;;;;;-1.00;99.90;;;;;;5033476;28;19928;-78
2023/01/19 04:55:00;;;;;;;;;;;-1.00;99.90;;;;;;5025405;28;19972;-78
2023/01/19 04:57:25;;;;;;;;;;;-1.10;99.90;;;;;;5017449;28;19963;-78
2023/01/19 04:59:50;;;;;;;;;;;-1.10;99.90;;;;;;5027736;28;19963;-78
2023/01/19 05:02:16;;;;;;;;;;;-1.10;99.90;;;;;;5022927;28;19922;-77
2023/01/19 05:04:42;;;;;;;;;;;-1.20;99.90;;;;;;5021940;28;19913;-77
2023/01/19 05:07:07;;;;;;;;;;;-1.20;99.90;;;;;;5022928;28;19910;-78
2023/01/19 05:09:34;;;;;;;;;;;-1.20;99.90;;;;;;5015490;28;19909;-78
2023/01/19 05:11:59;;;;;;;;;;;-1.30;99.90;;;;;;5016837;28;19914;-77
2023/01/19 05:14:25;;;;;;;;;;;-1.20;99.90;;;;;;5014504;28;19916;-77
2023/01/19 05:16:50;;;;;;;;;;;-1.20;99.90;;;;;;5018519;28;20040;-77
2023/01/19 05:19:16;;;;;;;;;;;-1.30;99.90;;;;;;5014346;28;20077;-77
2023/01/19 05:21:41;;;;;;;;;;;-1.30;99.90;;;;;;5012563;28;19914;-77
2023/01/19 05:24:07;;;;;;;;;;;-1.20;99.90;;;;;;5018063;28;19920;-79
2023/01/19 05:26:33;;;;;;;;;;;-1.30;99.90;;;;;;5022913;28;20379;-78
2023/01/19 05:28:58;;;;;;;;;;;-1.30;99.90;;;;;;5019997;28;19898;-79
2023/01/19 05:31:23;;;;;;;;;;;-1.40;99.90;;;;;;5018819;28;19926;-78
2023/01/19 05:33:49;;;;;;;;;;;-1.40;99.90;;;;;;5017325;28;19997;-79
2023/01/19 05:36:14;;;;;;;;;;;-1.40;99.90;;;;;;5011354;28;19921;-78
2023/01/19 05:38:40;;;;;;;;;;;-1.40;99.90;;;;;;4998965;28;20263;-79
2023/01/19 05:41:05;;;;;;;;;;;-1.40;99.90;;;;;;5016202;28;19949;-78
2023/01/19 05:43:31;;;;;;;;;;;-1.30;99.90;;;;;;5015472;28;20004;-79
2023/01/19 05:45:56;;;;;;;;;;;-1.30;99.90;;;;;;5017539;28;19951;-78
2023/01/19 05:48:22;;;;;;;;;;;-1.30;99.90;;;;;;5017968;28;19917;-79
2023/01/19 05:50:48;;;;;;;;;;;-1.30;99.90;;;;;;5019544;28;19914;-78
2023/01/19 05:53:14;;;;;;;;;;;-1.30;99.90;;;;;;5018223;28;19913;-78
2023/01/19 05:55:40;;;;;;;;;;;-1.30;99.90;;;;;;5017209;28;19918;-78
2023/01/19 05:58:05;;;;;;;;;;;-1.30;99.90;;;;;;5017937;28;20394;-78
2023/01/19 06:00:31;;;;;;;;;;;-1.20;99.90;;;;;;5017649;28;19917;-78
2023/01/19 06:02:56;;;;;;;;;;;-1.30;99.90;;;;;;5019657;28;19910;-78
2023/01/19 06:05:22;;;;;;;;;;;-1.20;99.90;;;;;;5000324;28;19917;-78
2023/01/19 06:07:47;;;;;;;;;;;-1.10;99.90;;;;;;5022343;28;19902;-77
2023/01/19 06:10:13;;;;;;;;;;;-1.10;99.90;;;;;;5032588;28;19924;-77
2023/01/19 06:12:40;;;;;;;;;;;-1.00;99.90;;;;;;5033182;28;19913;-77
2023/01/19 06:15:06;;;;;;;;;;;-0.90;99.90;;;;;;5030645;28;19914;-77
2023/01/19 06:17:32;;;;;;;;;;;-0.90;99.90;;;;;;5029263;28;19920;-77
2023/01/19 06:19:58;;;;;;;;;;;-0.90;99.90;;;;;;5023018;28;19909;-78
2023/01/19 06:22:23;;;;;;;;;;;-1.00;99.90;;;;;;5030730;28;20319;-78
2023/01/19 06:24:49;;;;;;;;;;;-1.00;99.90;;;;;;5016815;28;19910;-78
2023/01/19 06:27:14;;;;;;;;;;;-1.00;99.90;;;;;;5017539;28;19916;-78
2023/01/19 06:29:40;;;;;;;;;;;-1.10;99.90;;;;;;5019959;28;20000;-78
2023/01/19 06:32:05;;;;;;;;;;;-1.10;99.90;;;;;;5021202;28;19913;-78
2023/01/19 06:34:31;;;;;;;;;;;-1.20;99.90;;;;;;5020667;28;19910;-78
2023/01/19 06:36:57;;;;;;;;;;;-1.20;99.90;;;;;;5010774;28;20331;-78
2023/01/19 06:39:23;;;;;;;;;;;-1.30;99.90;;;;;;5003047;28;19953;-78
2023/01/19 06:41:49;;;;;;;;;;;-1.30;99.90;;;;;;5014587;28;20390;-78
2023/01/19 06:44:14;;;;;;;;;;;-1.30;99.90;;;;;;5016592;28;19929;-78
2023/01/19 06:46:41;;;;;;;;;;;-1.30;99.90;;;;;;4999687;28;19914;-79
2023/01/19 06:49:06;;;;;;;;;;;-1.20;99.90;;;;;;5002496;28;19921;-79
2023/01/19 06:51:32;;;;;;;;;;;-1.20;99.90;;;;;;5003351;28;19922;-79
2023/01/19 06:53:58;;;;;;;;;;;-1.20;99.90;;;;;;5020225;28;19909;-79
2023/01/19 06:56:23;;;;;;;;;;;-1.10;99.90;;;;;;5006137;28;19918;-77
2023/01/19 06:58:49;;;;;;;;;;;-1.00;99.90;;;;;;4998252;28;19939;-77
2023/01/19 07:01:15;;;;;;;;;;;-0.90;99.90;;;;;;5008182;28;19960;-78
2023/01/19 07:03:40;;;;;;;;;;;-0.90;99.90;;;;;;5019401;28;19994;-77
2023/01/19 07:06:06;;;;;;;;;;;-0.80;99.90;;;;;;5017820;28;19992;-78
2023/01/19 07:08:35;;;;;;;;;;;-0.80;99.90;;;;;;5018764;28;20362;-78
2023/01/19 07:11:05;;;;;;;;;;;-0.80;99.90;;;;;;5020539;28;19917;-79
2023/01/19 07:13:31;;;;;;;;;;;-0.80;99.90;;;;;;5021111;28;19948;-78
2023/01/19 07:15:57;;;;;;;;;;;-0.70;99.90;;;;;;5003119;28;19925;-79
2023/01/19 07:18:22;;;;;;;;;;;-0.70;99.90;;;;;;5021965;28;19921;-78
2023/01/19 07:20:48;;;;;;;;;;;-0.70;99.90;;;;;;5023824;28;20315;-79
2023/01/19 07:23:14;;;;;;;;;;;-0.70;99.90;;;;;;5018442;28;19919;-76
2023/01/19 07:25:40;;;;;;;;;;;-0.70;99.90;;;;;;5020428;28;20008;-78
2023/01/19 07:28:05;;;;;;;;;;;-0.70;99.90;;;;;;5021385;28;19948;-78
2023/01/19 07:30:31;;;;;;;;;;;-0.80;99.80;;;;;;5023541;28;19913;-79
2023/01/19 07:32:57;;;;;;;;;;;-0.80;99.80;;;;;;5022256;28;19910;-78
2023/01/19 07:35:25;;;;;;;;;;;-0.90;99.80;;;;;;5031223;28;19928;-78
2023/01/19 07:37:51;;;;;;;;;;;-0.90;99.80;;;;;;5022039;28;19949;-79
2023/01/19 07:40:17;;;;;;;;;;;-0.90;99.90;;;;;;5002694;28;19920;-79
2023/01/19 07:42:49;;;;;;;;;;;-0.90;99.80;;;;;;5005004;28;19944;-79
2023/01/19 07:45:19;;;;;;;;;;;-1.00;99.90;;;;;;5042564;28;19909;-79
2023/01/19 07:47:47;;;;;;;;;;;-0.90;99.90;;;;;;5022343;28;19932;-78
2023/01/19 07:50:13;;;;;;;;;;;-0.90;99.50;;;;;;5039703;28;19923;-79
2023/01/19 07:52:39;;;;;;;;;;;-0.90;99.40;;;;;;5031033;28;19971;-79
2023/01/19 07:55:05;;;;;;;;;;;-0.90;99.10;;;;;;5022200;28;19914;-78
2023/01/19 07:57:30;;;;;;;;;;;-0.80;99.10;;;;;;5002031;28;20283;-77
2023/01/19 07:59:56;;;;;;;;;;;-0.80;99.00;;;;;;5017276;28;19909;-77
2023/01/19 08:02:24;;;;;;;;;;;-0.70;98.30;;;;;;5020584;28;19985;-78
2023/01/19 08:04:50;;;;;;;;;;;-0.70;98.10;;;;;;5029671;28;19988;-79
2023/01/19 08:07:16;;;;;;;;;;;-0.60;98.10;;;;;;5026404;28;19914;-78
2023/01/19 08:09:41;;;;;;;;;;;-0.60;98.10;;;;;;5002042;28;19981;-77
2023/01/19 08:12:07;;;;;;;;;;;-0.50;97.50;;;;;;5024524;28;19955;-79
2023/01/19 08:14:33;;;;;;;;;;;-0.50;97.30;;;;;;5020072;28;19919;-78
2023/01/19 08:17:02;;;;;;;;;;;-0.40;97.20;;;;;;5022344;28;19918;-78
2023/01/19 08:19:27;;;;;;;;;;;-0.40;97.00;;;;;;5037454;28;20060;-78
2023/01/19 08:21:53;;;;;;;;;;;-0.40;96.50;;;;;;5021217;28;19968;-78
2023/01/19 08:24:20;;;;;;;;;;;-0.40;96.10;;;;;;5033501;28;19968;-77
2023/01/19 08:26:46;;;;;;;;;;;-0.40;96.40;;;;;;5018348;28;19913;-78
2023/01/19 08:29:11;;;;;;;;;;;-0.30;96.40;;;;;;5017723;28;20025;-79
2023/01/19 08:31:38;;;;;;;;;;;-0.20;96.40;;;;;;5018111;28;19934;-79
2023/01/19 08:34:03;;;;;;;;;;;-0.20;96.00;;;;;;5019854;28;20012;-79
2023/01/19 08:36:31;;;;;;;;;;;-0.20;96.00;;;;;;5012590;28;20322;-79
2023/01/19 08:38:56;;;;;;;;;;;-0.10;95.70;;;;;;4998011;28;19926;-77
2023/01/19 08:41:22;;;;;;;;;;;-0.10;95.50;;;;;;4999686;28;20005;-77
2023/01/19 08:43:48;;;;;;;;;;;0.00;94.90;;;;;;5001949;28;20262;-78
2023/01/19 08:46:16;;;;;;;;;;;0.00;95.00;;;;;;5004273;28;19913;-78
2023/01/19 08:48:43;;;;;;;;;;;0.10;94.90;;;;;;5027087;28;19932;-78
2023/01/19 08:51:10;;;;;;;;;;;0.20;94.80;;;;;;5028160;28;19909;-77
2023/01/19 08:53:35;;;;;;;;;;;0.10;94.50;;;;;;5009289;28;19910;-77
2023/01/19 08:56:01;;;;;;;;;;;0.20;94.50;;;;;;5022991;28;19917;-78
2023/01/19 08:58:27;;;;;;;;;;;0.30;94.40;;;;;;5024908;28;19913;-78
2023/01/19 09:00:53;;;;;;;;;;;0.30;94.50;;;;;;5028975;28;19910;-78
2023/01/19 09:03:19;;;;;;;;;;;0.40;94.40;;;;;;5030121;28;19964;-78
2023/01/19 09:05:45;;;;;;;;;;;0.50;93.90;;;;;;5026248;28;19913;-77
2023/01/19 09:08:12;;;;;;;;;;;0.50;93.10;;;;;;5024414;28;19948;-78
2023/01/19 09:10:38;;;;;;;;;;;0.40;93.10;;;;;;5007739;28;19917;-78
2023/01/19 09:13:04;;;;;;;;;;;0.40;93.30;;;;;;5005409;28;19913;-79
2023/01/19 09:15:32;;;;;;;;;;;0.30;93.10;;;;;;5017561;28;19976;-79
2023/01/19 09:17:58;;;;;;;;;;;0.30;93.20;;;;;;5018726;28;19914;-78
2023/01/19 09:20:23;;;;;;;;;;;0.30;93.10;;;;;;5018729;28;19953;-79
2023/01/19 09:22:49;;;;;;;;;;;0.40;93.10;;;;;;5000398;28;19916;-78
2023/01/19 09:25:16;;;;;;;;;;;0.40;92.70;;;;;;5001223;28;19918;-79
2023/01/19 09:27:41;;;;;;;;;;;0.40;92.70;;;;;;5022110;28;19913;-79
2023/01/19 09:30:10;;;;;;;;;;;0.40;92.60;;;;;;5020859;28;19913;-78
2023/01/19 09:32:35;;;;;;;;;;;0.50;92.40;;;;;;5020950;28;19977;-79
2023/01/19 09:35:01;;;;;;;;;;;0.50;92.30;;;;;;5018223;28;19909;-78
2023/01/19 09:37:26;;;;;;;;;;;0.60;92.00;;;;;;5021363;28;19985;-79
2023/01/19 09:39:52;;;;;;;;;;;0.70;92.00;;;;;;5019313;28;20020;-78
2023/01/19 09:42:20;;;;;;;;;;;0.70;91.00;;;;;;5022697;28;20370;-79
2023/01/19 09:44:48;;;;;;;;;;;0.70;91.40;;;;;;5022481;28;20342;-79
2023/01/19 09:47:15;;;;;;;;;;;0.70;91.50;;;;;;5020907;28;19917;-79
2023/01/19 09:49:44;;;;;;;;;;;0.80;91.30;;;;;;5020639;28;19909;-79
2023/01/19 09:52:12;;;;;;;;;;;0.90;91.10;;;;;;5018934;28;20240;-79
2023/01/19 09:54:41;;;;;;;;;;;0.90;91.10;;;;;;5019923;28;20020;-79
2023/01/19 09:57:10;;;;;;;;;;;0.90;91.00;;;;;;5023056;28;20281;-78
2023/01/19 09:59:37;;;;;;;;;;;0.90;91.00;;;;;;5022431;28;19910;-77
2023/01/19 10:02:15;;;;;;;;;;;1.00;91.30;;;;;;5023780;28;19916;-78
2023/01/19 10:04:41;;;;;;;;;;;1.10;91.20;;;;;;5006120;28;19910;-78
2023/01/19 10:07:26;;;;;;;;;;;1.20;90.70;;;;;;5020328;28;19929;-79
2023/01/19 10:10:10;;;;;;;;;;;1.20;90.60;;;;;;5026283;28;19981;-79
2023/01/19 10:12:44;;;;;;;;;;;1.30;89.30;;;;;;5023215;28;19957;-79
2023/01/19 10:15:16;;;;;;;;;;;1.50;89.50;;;;;;5005417;28;19917;-79
2023/01/19 10:17:59;;;;;;;;;;;1.60;86.60;;;;;;5022506;28;19985;-79
2023/01/19 10:20:29;;;;;;;;;;;1.70;86.40;;;;;;5025060;28;19929;-79
2023/01/19 10:22:56;;;;;;;;;;;1.70;86.10;;;;;;5004838;28;19984;-79
2023/01/19 10:25:23;;;;;;;;;;;1.80;85.20;;;;;;5022591;28;19974;-79
2023/01/19 10:27:49;;;;;;;;;;;1.90;85.90;;;;;;5021734;28;20297;-77
2023/01/19 10:30:19;;;;;;;;;;;1.90;86.10;;;;;;5020825;28;19913;-79
2023/01/19 10:32:45;;;;;;;;;;;1.80;84.80;;;;;;5035115;28;20307;-79
2023/01/19 10:35:20;;;;;;;;;;;1.90;85.50;;;;;;5021358;28;20016;-80
2023/01/19 10:37:46;;;;;;;;;;;2.00;84.60;;;;;;5021259;28;19925;-79
2023/01/19 10:40:11;;;;;;;;;;;2.10;84.30;;;;;;5020357;28;19988;-79
2023/01/19 10:42:38;;;;;;;;;;;2.10;83.70;;;;;;5022883;28;20104;-80
2023/01/19 10:45:14;;;;;;;;;;;2.10;83.60;;;;;;5019799;28;20036;-78
2023/01/19 10:47:39;;;;;;;;;;;2.20;84.40;;;;;;5020509;28;19914;-79
2023/01/19 10:50:20;;;;;;;;;;;2.30;83.70;;;;;;5019923;28;19916;-78
2023/01/19 10:52:48;;;;;;;;;;;2.40;82.30;;;;;;5020993;28;19948;-79
2023/01/19 10:55:23;;;;;;;;;;;2.50;80.20;;;;;;5019413;28;19913;-78
2023/01/19 10:57:50;;;;;;;;;;;2.60;80.60;;;;;;5020339;28;19981;-78
2023/01/19 11:00:36;;;;;;;;;;;2.60;78.00;;;;;;5018497;28;20371;-80
2023/01/19 11:03:03;;;;;;;;;;;2.60;77.80;;;;;;5005411;28;19913;-78
2023/01/19 11:05:29;;;;;;;;;;;2.60;78.60;;;;;;5020939;28;19929;-78
2023/01/19 11:07:55;;;;;;;;;;;2.70;78.40;;;;;;5004063;28;19961;-77
2023/01/19 11:10:22;;;;;;;;;;;2.80;78.20;;;;;;5018608;28;19910;-79
2023/01/19 11:13:02;;;;;;;;;;;2.90;77.00;;;;;;5020480;28;19909;-79
2023/01/19 11:15:56;;;;;;;;;;;2.90;76.80;;;;;;5019777;28;20286;-79
2023/01/19 11:18:26;;;;;;;;;;;2.90;75.90;;;;;;5018138;28;19917;-78
2023/01/19 11:20:53;;;;;;;;;;;2.90;75.40;;;;;;5020737;28;19945;-80
2023/01/19 11:23:27;;;;;;;;;;;2.90;74.70;;;;;;5022414;28;19941;-78
2023/01/19 11:25:53;;;;;;;;;;;2.80;73.40;;;;;;5019851;28;20323;-79
2023/01/19 11:28:45;;;;;;;;;;;2.80;74.40;;;;;;5020437;28;20379;-79
2023/01/19 11:31:14;;;;;;;;;;;2.70;73.50;;;;;;5019791;28;19952;-78
2023/01/19 11:33:47;;;;;;;;;;;2.60;74.00;;;;;;5021012;28;19913;-78
2023/01/19 11:36:20;;;;;;;;;;;2.60;74.10;;;;;;5005677;28;19925;-78
2023/01/19 11:38:49;;;;;;;;;;;2.60;73.90;;;;;;5029443;28;19909;-79
2023/01/19 11:41:19;;;;;;;;;;;2.60;74.00;;;;;;5014796;28;19929;-78
2023/01/19 11:43:47;;;;;;;;;;;2.60;74.50;;;;;;5019582;28;19957;-78
2023/01/19 11:46:14;;;;;;;;;;;2.60;74.20;;;;;;5020233;28;19937;-79
2023/01/19 11:48:47;;;;;;;;;;;2.60;74.90;;;;;;5020315;28;19909;-79
2023/01/19 11:51:14;;;;;;;;;;;2.70;75.30;;;;;;5019892;28;19917;-79
2023/01/19 11:53:42;;;;;;;;;;;2.70;73.60;;;;;;5019956;28;20048;-79
2023/01/19 11:56:07;;;;;;;;;;;2.70;74.00;;;;;;5019946;28;20020;-79
2023/01/19 11:58:36;;;;;;;;;;;2.70;73.90;;;;;;5002050;28;19964;-79
2023/01/19 12:01:05;;;;;;;;;;;2.80;74.10;;;;;;5019571;28;19982;-80
2023/01/19 12:03:41;;;;;;;;;;;2.80;74.20;;;;;;5001759;28;20040;-78
2023/01/19 12:06:09;;;;;;;;;;;2.90;74.10;;;;;;5001210;28;19898;-78
2023/01/19 12:08:35;;;;;;;;;;;2.90;71.10;;;;;;5000734;28;19909;-78
2023/01/19 12:11:02;;;;;;;;;;;2.90;71.30;;;;;;5018011;28;20250;-79
2023/01/19 12:13:29;;;;;;;;;;;2.80;70.40;;;;;;5017786;28;19914;-79
2023/01/19 12:16:16;;;;;;;;;;;2.70;70.90;;;;;;5017589;28;19924;-79
2023/01/19 12:18:47;;;;;;;;;;;2.70;70.90;;;;;;5018212;28;19909;-78
2023/01/19 12:21:13;;;;;;;;;;;2.70;71.00;;;;;;5017897;28;19960;-78
2023/01/19 12:23:41;;;;;;;;;;;2.70;70.70;;;;;;5019353;28;19909;-78
2023/01/19 12:26:13;;;;;;;;;;;2.70;70.20;;;;;;5001239;28;19922;-77
2023/01/19 12:28:40;;;;;;;;;;;2.60;70.10;;;;;;5001642;28;19937;-78
2023/01/19 12:31:07;;;;;;;;;;;2.60;70.70;;;;;;5018337;28;19964;-78
2023/01/19 12:33:37;;;;;;;;;;;2.60;71.30;;;;;;5017632;28;19968;-78
2023/01/19 12:36:06;;;;;;;;;;;2.60;71.50;;;;;;5017370;28;19928;-78
2023/01/19 12:38:32;;;;;;;;;;;2.60;71.50;;;;;;5019829;28;19910;-79
2023/01/19 12:41:15;;;;;;;;;;;2.60;71.50;;;;;;5019189;28;19963;-78
2023/01/19 12:43:41;;;;;;;;;;;2.50;71.60;;;;;;5018838;28;20236;-77
2023/01/19 12:46:27;;;;;;;;;;;2.50;71.70;;;;;;5018744;28;19921;-78
2023/01/19 12:48:52;;;;;;;;;;;2.50;71.50;;;;;;5017596;28;19910;-78
2023/01/19 12:51:25;;;;;;;;;;;2.50;71.40;;;;;;5002084;28;19920;-78
2023/01/19 12:53:55;;;;;;;;;;;2.40;71.60;;;;;;5021884;28;20440;-78
2023/01/19 12:56:32;;;;;;;;;;;2.30;72.20;;;;;;5006743;28;19941;-78
2023/01/19 12:58:58;;;;;;;;;;;2.40;72.40;;;;;;5019420;28;19913;-78
2023/01/19 13:01:25;;;;;;;;;;;2.40;72.40;;;;;;5018556;28;19967;-79
2023/01/19 13:04:08;;;;;;;;;;;2.40;72.40;;;;;;5017747;28;20385;-78
2023/01/19 13:06:45;;;;;;;;;;;2.40;72.10;;;;;;5012345;28;19985;-77
2023/01/19 13:09:29;;;;;;;;;;;2.40;72.50;;;;;;5016793;28;19963;-77
2023/01/19 13:12:13;;;;;;;;;;;2.30;72.80;;;;;;5016408;28;19963;-78
2023/01/19 13:14:39;;;;;;;;;;;2.30;73.00;;;;;;5017136;28;19917;-76
2023/01/19 13:17:25;;;;;;;;;;;2.30;73.10;;;;;;5015443;28;20336;-79
2023/01/19 13:19:57;;;;;;;;;;;2.30;73.20;;;;;;5015602;28;19925;-78
2023/01/19 13:22:41;;;;;;;;;;;2.30;73.00;;;;;;5001028;28;20016;-77
2023/01/19 13:25:11;;;;;;;;;;;2.20;72.80;;;;;;5017878;28;20302;-78
2023/01/19 13:27:37;;;;;;;;;;;2.20;72.90;;;;;;5017710;28;20306;-78
2023/01/19 13:30:09;;;;;;;;;;;2.20;72.50;;;;;;5020621;28;19909;-78
2023/01/19 13:32:34;;;;;;;;;;;2.20;72.10;;;;;;5018168;28;20000;-78
2023/01/19 13:35:00;;;;;;;;;;;2.10;72.20;;;;;;5017955;28;19952;-78
2023/01/19 13:37:30;;;;;;;;;;;2.10;71.90;;;;;;5017582;28;19921;-78
2023/01/19 13:39:55;;;;;;;;;;;2.10;72.00;;;;;;5022581;28;19917;-78
2023/01/19 13:42:29;;;;;;;;;;;2.00;72.60;;;;;;5025217;28;20274;-78
2023/01/19 13:44:57;;;;;;;;;;;2.00;73.30;;;;;;5012442;28;19956;-79
2023/01/19 13:47:34;;;;;;;;;;;1.90;73.60;;;;;;5026201;28;19910;-79
2023/01/19 13:50:00;;;;;;;;;;;2.00;73.10;;;;;;5024847;28;19921;-77
2023/01/19 13:52:26;;;;;;;;;;;2.00;73.30;;;;;;5023664;28;19909;-78
2023/01/19 13:54:56;;;;;;;;;;;2.00;73.60;;;;;;5023830;28;19913;-79
2023/01/19 13:57:32;;;;;;;;;;;2.10;74.40;;;;;;5025755;28;19941;-79
2023/01/19 14:00:04;;;;;;;;;;;2.20;73.30;;;;;;5025988;28;19917;-78
2023/01/19 14:02:29;;;;;;;;;;;2.20;72.80;;;;;;5024477;28;19909;-78
2023/01/19 14:04:56;;;;;;;;;;;2.30;72.90;;;;;;5025087;28;20370;-78
2023/01/19 14:07:25;;;;;;;;;;;2.30;73.00;;;;;;5006886;28;19992;-79
2023/01/19 14:10:00;;;;;;;;;;;2.30;73.10;;;;;;5024269;28;19910;-79
2023/01/19 14:12:25;;;;;;;;;;;2.30;73.30;;;;;;5023923;28;19940;-78
2023/01/19 14:14:51;;;;;;;;;;;2.20;73.60;;;;;;5024753;28;19909;-79
2023/01/19 14:17:27;;;;;;;;;;;2.30;73.70;;;;;;5024947;28;20012;-78
2023/01/19 14:19:54;;;;;;;;;;;2.30;73.90;;;;;;5026581;28;19909;-79
2023/01/19 14:22:20;;;;;;;;;;;2.40;73.70;;;;;;5024840;28;19936;-79
2023/01/19 14:24:45;;;;;;;;;;;2.40;72.20;;;;;;5026168;28;19913;-77
2023/01/19 14:27:21;;;;;;;;;;;2.50;72.10;;;;;;5024994;28;20415;-78
2023/01/19 14:29:49;;;;;;;;;;;2.50;70.30;;;;;;5009117;28;19922;-79
2023/01/19 14:32:22;;;;;;;;;;;2.40;70.60;;;;;;5028066;28;19996;-78
2023/01/19 14:35:08;;;;;;;;;;;2.40;70.10;;;;;;5032896;28;19925;-78
2023/01/19 14:37:34;;;;;;;;;;;2.30;69.00;;;;;;5020582;28;19921;-77